createdAt,value
2023-02-19T00:01:54.798Z,20.38
2023-02-19T00:04:23.890Z,21.58
2023-02-19T00:06:52.429Z,19.50
2023-02-19T00:09:21.709Z,23.42
2023-02-19T00:11:51.603Z,21.13
2023-02-19T00:14:22.214Z,18.20
2023-02-19T00:16:50.786Z,17.13
2023-02-19T00:19:21.060Z,18.33
2023-02-19T00:21:51.785Z,16.90
2023-02-19T00:24:20.912Z,18.52
2023-02-19T00:26:49.565Z,17.13
2023-02-19T00:29:21.635Z,21.23
2023-02-19T00:31:50.577Z,14.32
2023-02-19T00:34:19.029Z,16.33
2023-02-19T00:36:47.500Z,16.38
2023-02-19T00:39:18.625Z,16.83
2023-02-19T00:41:47.563Z,16.65
2023-02-19T00:44:18.078Z,11.95
2023-02-19T00:46:48.215Z,16.40
2023-02-19T00:49:20.399Z,7.15
2023-02-19T00:51:49.444Z,14.23
2023-02-19T00:54:18.466Z,11.32
2023-02-19T00:56:47.376Z,11.38
2023-02-19T00:59:16.282Z,12.43
2023-02-19T01:01:46.962Z,10.80
2023-02-19T01:04:16.559Z,8.73
2023-02-19T01:06:45.037Z,13.40
2023-02-19T01:09:13.733Z,15.23
2023-02-19T01:11:42.110Z,9.85
2023-02-19T01:14:10.873Z,11.10
2023-02-19T01:16:39.310Z,7.43
2023-02-19T01:19:09.008Z,11.85
2023-02-19T01:21:37.339Z,9.70
2023-02-19T01:24:05.889Z,14.13
2023-02-19T01:26:35.069Z,11.45
2023-02-19T01:29:04.748Z,10.23
2023-02-19T01:31:33.594Z,12.52
2023-02-19T01:34:03.942Z,8.13
2023-02-19T01:36:35.582Z,7.43
2023-02-19T01:39:06.132Z,8.25
2023-02-19T01:41:38.988Z,7.47
2023-02-19T01:44:09.525Z,11.50
2023-02-19T01:46:38.964Z,8.57
2023-02-19T01:49:11.999Z,9.95
2023-02-19T01:51:47.605Z,8.38
2023-02-19T01:54:21.042Z,10.85
2023-02-19T01:56:50.413Z,9.63
2023-02-19T01:59:19.580Z,13.23
2023-02-19T02:01:48.120Z,16.00
2023-02-19T02:04:17.897Z,11.30
2023-02-19T02:06:52.562Z,9.30
2023-02-19T02:09:40.102Z,13.20
2023-02-19T02:12:09.114Z,7.65
2023-02-19T02:14:39.971Z,9.93
2023-02-19T02:17:17.507Z,7.90
2023-02-19T02:20:08.925Z,12.15
2023-02-19T02:22:43.413Z,8.18
2023-02-19T02:26:02.113Z,4.53
2023-02-19T02:28:50.561Z,9.82
2023-02-19T02:31:24.758Z,8.35
2023-02-19T02:34:00.008Z,8.85
2023-02-19T02:36:32.589Z,7.63
2023-02-19T02:39:03.581Z,9.98
2023-02-19T02:41:33.432Z,8.45
2023-02-19T02:44:02.810Z,6.88
2023-02-19T02:46:37.904Z,8.13
2023-02-19T02:49:10.313Z,10.23
2023-02-19T02:51:42.610Z,10.75
2023-02-19T02:54:33.437Z,5.35
2023-02-19T02:57:02.217Z,7.43
2023-02-19T02:59:33.387Z,7.85
2023-02-19T03:02:11.246Z,5.93
2023-02-19T03:05:06.409Z,8.57
2023-02-19T03:07:39.746Z,6.70
2023-02-19T03:10:13.101Z,7.45
2023-02-19T03:13:01.772Z,9.65
2023-02-19T03:15:52.585Z,6.95
2023-02-19T03:18:41.334Z,8.57
2023-02-19T03:21:11.247Z,12.40
2023-02-19T03:23:58.407Z,8.13
2023-02-19T03:26:27.674Z,9.57
2023-02-19T03:29:14.976Z,10.43
2023-02-19T03:31:46.173Z,14.60
2023-02-19T03:34:20.098Z,11.40
2023-02-19T03:36:55.266Z,9.52
2023-02-19T03:39:24.690Z,7.18
2023-02-19T03:42:02.791Z,8.57
2023-02-19T03:44:39.747Z,9.60
2023-02-19T03:47:15.740Z,10.70
2023-02-19T03:49:50.302Z,9.15
2023-02-19T03:52:25.027Z,8.32
2023-02-19T03:54:58.972Z,6.13
2023-02-19T03:57:35.384Z,10.90
2023-02-19T04:00:11.160Z,15.57
2023-02-19T04:02:45.328Z,9.40
2023-02-19T04:05:20.042Z,8.13
2023-02-19T04:07:51.653Z,7.55
2023-02-19T04:10:21.777Z,12.02
2023-02-19T04:12:55.324Z,11.25
2023-02-19T04:15:28.464Z,15.38
2023-02-19T04:18:00.046Z,14.20
2023-02-19T04:20:35.361Z,7.53
2023-02-19T04:23:05.002Z,11.98
2023-02-19T04:25:35.000Z,11.68
2023-02-19T04:28:03.742Z,11.65
2023-02-19T04:30:32.170Z,16.20
2023-02-19T04:33:00.572Z,10.45
2023-02-19T04:35:30.329Z,8.63
2023-02-19T04:37:58.687Z,14.07
2023-02-19T04:40:27.082Z,8.93
2023-02-19T04:42:55.474Z,6.88
2023-02-19T04:45:23.786Z,6.45
2023-02-19T04:47:52.174Z,7.82
2023-02-19T04:50:21.703Z,9.75
2023-02-19T04:52:51.674Z,14.85
2023-02-19T04:55:19.990Z,10.07
2023-02-19T04:57:48.329Z,9.63
2023-02-19T05:00:17.072Z,8.95
2023-02-19T05:02:45.390Z,8.90
2023-02-19T05:05:14.002Z,6.85
2023-02-19T05:07:42.363Z,10.45
2023-02-19T05:10:12.102Z,7.65
2023-02-19T05:12:40.639Z,7.45
2023-02-19T05:15:09.424Z,11.75
2023-02-19T05:17:38.007Z,10.05
2023-02-19T05:20:06.997Z,6.07
2023-02-19T05:22:35.350Z,12.52
2023-02-19T05:25:04.611Z,9.13
2023-02-19T05:27:35.424Z,7.85
2023-02-19T05:30:03.887Z,10.88
2023-02-19T05:32:32.238Z,11.63
2023-02-19T05:35:00.601Z,5.68
2023-02-19T05:37:29.070Z,10.55
2023-02-19T05:39:57.469Z,4.65
2023-02-19T05:42:25.935Z,4.47
2023-02-19T05:44:55.676Z,7.80
2023-02-19T05:47:24.056Z,14.80
2023-02-19T05:49:52.533Z,5.68
2023-02-19T05:52:20.941Z,11.25
2023-02-19T05:54:49.519Z,6.88
2023-02-19T05:57:17.913Z,4.13
2023-02-19T05:59:46.350Z,5.60
2023-02-19T06:02:16.157Z,12.85
2023-02-19T06:04:44.547Z,10.88
2023-02-19T06:07:13.196Z,9.93
2023-02-19T06:09:41.579Z,9.75
2023-02-19T06:12:10.053Z,13.63
2023-02-19T06:14:38.467Z,6.20
2023-02-19T06:17:06.885Z,10.60
2023-02-19T06:19:36.767Z,7.50
2023-02-19T06:22:05.085Z,9.73
2023-02-19T06:24:33.610Z,9.32
2023-02-19T06:27:02.065Z,6.68
2023-02-19T06:29:32.593Z,8.30
2023-02-19T06:32:01.395Z,11.40
2023-02-19T06:34:29.841Z,9.40
2023-02-19T06:36:59.915Z,7.38
2023-02-19T06:39:30.008Z,9.65
2023-02-19T06:41:59.219Z,7.65
2023-02-19T06:44:27.631Z,5.45
2023-02-19T06:46:57.478Z,9.65
2023-02-19T06:49:25.936Z,10.90
2023-02-19T06:51:54.327Z,5.68
2023-02-19T06:54:25.842Z,5.53
2023-02-19T06:56:54.431Z,10.75
2023-02-19T06:59:22.799Z,7.57
2023-02-19T07:01:51.196Z,10.80
2023-02-19T07:04:19.969Z,11.63
2023-02-19T07:06:48.674Z,4.88
2023-02-19T07:09:17.039Z,5.57
2023-02-19T07:11:46.766Z,7.40
2023-02-19T07:14:17.286Z,6.95
2023-02-19T07:16:47.431Z,7.60
2023-02-19T07:19:16.880Z,9.50
2023-02-19T07:21:45.212Z,9.88
2023-02-19T07:24:13.724Z,5.45
2023-02-19T07:26:42.087Z,6.32
2023-02-19T07:29:12.130Z,4.93
2023-02-19T07:31:40.563Z,7.93
2023-02-19T07:34:09.315Z,8.90
2023-02-19T07:36:37.762Z,8.63
2023-02-19T07:39:08.015Z,10.20
2023-02-19T07:41:37.606Z,8.05
2023-02-19T07:44:06.494Z,6.40
2023-02-19T07:46:36.709Z,8.32
2023-02-19T07:49:07.305Z,10.32
2023-02-19T07:51:35.746Z,8.43
2023-02-19T07:54:04.179Z,7.95
2023-02-19T07:56:32.619Z,6.85
2023-02-19T07:59:02.195Z,8.75
2023-02-19T08:01:44.870Z,7.53
2023-02-19T08:04:15.727Z,9.63
2023-02-19T08:06:44.764Z,7.72
2023-02-19T08:09:13.340Z,9.60
2023-02-19T08:11:59.244Z,13.43
2023-02-19T08:14:27.804Z,5.88
2023-02-19T08:16:56.521Z,7.53
2023-02-19T08:19:26.508Z,7.60
2023-02-19T08:21:54.998Z,10.40
2023-02-19T08:24:23.507Z,10.75
2023-02-19T08:26:52.457Z,6.90
2023-02-19T08:29:20.850Z,8.15
2023-02-19T08:31:49.543Z,7.20
2023-02-19T08:34:18.539Z,3.75
2023-02-19T08:36:48.258Z,7.90
2023-02-19T08:39:18.410Z,5.47
2023-02-19T08:41:48.014Z,8.30
2023-02-19T08:44:16.797Z,2.95
2023-02-19T08:46:45.161Z,8.25
2023-02-19T08:49:13.558Z,10.77
2023-02-19T08:51:41.941Z,4.93
2023-02-19T08:54:11.656Z,7.35
2023-02-19T08:56:40.021Z,6.75
2023-02-19T08:59:08.330Z,4.53
2023-02-19T09:01:36.970Z,7.05
2023-02-19T09:04:05.553Z,7.53
2023-02-19T09:06:33.957Z,7.07
2023-02-19T09:09:03.331Z,6.38
2023-02-19T09:11:33.088Z,6.80
2023-02-19T09:14:02.394Z,6.82
2023-02-19T09:16:30.715Z,8.50
2023-02-19T09:18:59.229Z,9.27
2023-02-19T09:21:27.612Z,4.15
2023-02-19T09:23:55.961Z,3.85
2023-02-19T09:26:25.483Z,9.52
2023-02-19T09:28:56.045Z,7.55
2023-02-19T09:31:24.490Z,7.90
2023-02-19T09:33:52.930Z,9.15
2023-02-19T09:36:21.276Z,10.30
2023-02-19T09:38:49.700Z,6.25
2023-02-19T09:41:25.416Z,6.22
2023-02-19T09:43:55.446Z,6.82
2023-02-19T09:46:29.788Z,11.20
2023-02-19T09:49:04.616Z,6.97
2023-02-19T09:51:35.638Z,3.38
2023-02-19T09:54:08.027Z,6.90
2023-02-19T09:56:36.518Z,7.07
2023-02-19T09:59:07.822Z,4.80
2023-02-19T10:01:40.802Z,5.95
2023-02-19T10:04:11.890Z,8.63
2023-02-19T10:06:40.292Z,8.10
2023-02-19T10:09:22.163Z,7.50
2023-02-19T10:11:51.106Z,3.50
2023-02-19T10:14:25.675Z,9.55
2023-02-19T10:16:54.708Z,11.07
2023-02-19T10:19:23.064Z,5.18
2023-02-19T10:21:51.579Z,5.10
2023-02-19T10:24:25.913Z,9.88
2023-02-19T10:26:54.631Z,4.03
2023-02-19T10:29:25.042Z,6.38
2023-02-19T10:32:17.110Z,6.20
2023-02-19T10:34:45.743Z,2.80
2023-02-19T10:37:17.609Z,6.88
2023-02-19T10:39:47.896Z,4.50
2023-02-19T10:42:21.649Z,4.15
2023-02-19T10:44:58.682Z,4.35
2023-02-19T10:47:28.362Z,8.95
2023-02-19T10:50:03.294Z,6.55
2023-02-19T10:52:35.381Z,3.08
2023-02-19T10:55:18.284Z,5.30
2023-02-19T10:57:46.959Z,4.50
2023-02-19T11:00:26.990Z,3.40
2023-02-19T11:03:15.186Z,3.90
2023-02-19T11:06:01.745Z,3.67
2023-02-19T11:08:31.294Z,3.30
2023-02-19T11:10:59.697Z,1.42
2023-02-19T11:13:32.610Z,3.05
2023-02-19T11:16:02.711Z,2.88
2023-02-19T11:18:35.309Z,4.50
2023-02-19T11:21:06.595Z,0.93
2023-02-19T11:23:38.257Z,2.60
2023-02-19T11:26:17.615Z,2.55
2023-02-19T11:28:46.197Z,2.08
2023-02-19T11:31:25.638Z,3.58
2023-02-19T11:33:59.187Z,2.10
2023-02-19T11:36:31.190Z,4.72
2023-02-19T11:39:03.523Z,1.48
2023-02-19T11:41:53.723Z,2.42
2023-02-19T11:44:34.168Z,2.25
2023-02-19T11:47:41.953Z,2.47
2023-02-19T11:50:22.757Z,2.58
2023-02-19T11:53:06.207Z,0.43
2023-02-19T11:55:49.116Z,2.63
2023-02-19T11:58:40.917Z,3.85
2023-02-19T12:01:20.083Z,2.63
2023-02-19T12:04:14.071Z,3.85
2023-02-19T12:06:55.232Z,2.95
2023-02-19T12:09:35.332Z,3.08
2023-02-19T12:12:18.365Z,2.38
2023-02-19T12:15:20.112Z,1.48
2023-02-19T12:18:16.680Z,5.38
2023-02-19T12:20:54.342Z,0.60
2023-02-19T12:23:45.033Z,0.85
2023-02-19T12:26:23.547Z,0.60
2023-02-19T12:29:26.094Z,1.50
2023-02-19T12:32:18.569Z,2.10
2023-02-19T12:35:09.113Z,1.00
2023-02-19T12:37:49.384Z,2.28
2023-02-19T12:40:28.120Z,1.38
2023-02-19T12:43:10.804Z,1.85
2023-02-19T12:45:44.009Z,1.00
2023-02-19T12:48:19.877Z,2.53
2023-02-19T12:50:53.376Z,2.88
2023-02-19T12:53:41.414Z,4.53
2023-02-19T12:56:17.273Z,4.95
2023-02-19T12:58:49.573Z,0.55
2023-02-19T13:01:26.077Z,0.43
2023-02-19T13:04:14.214Z,2.25
2023-02-19T13:06:46.596Z,1.23
2023-02-19T13:09:21.684Z,2.90
2023-02-19T13:11:55.654Z,2.10
2023-02-19T13:14:32.997Z,3.88
2023-02-19T13:17:05.650Z,3.40
2023-02-19T13:19:35.489Z,1.17
2023-02-19T13:22:31.010Z,1.67
2023-02-19T13:25:02.418Z,1.85
2023-02-19T13:28:04.276Z,2.28
2023-02-19T13:30:50.668Z,3.38
2023-02-19T13:33:34.394Z,2.40
2023-02-19T13:36:13.138Z,1.58
2023-02-19T13:38:44.194Z,1.83
2023-02-19T13:41:29.632Z,2.00
2023-02-19T13:44:02.031Z,4.35
2023-02-19T13:46:41.708Z,2.58
2023-02-19T13:49:42.367Z,2.90
2023-02-19T13:52:39.468Z,3.20
2023-02-19T13:55:46.743Z,1.95
2023-02-19T13:58:54.307Z,4.72
2023-02-19T14:02:17.845Z,1.15
2023-02-19T14:04:52.237Z,2.10
2023-02-19T14:07:52.052Z,1.33
2023-02-19T14:10:57.790Z,1.95
2023-02-19T14:14:06.759Z,2.03
2023-02-19T14:16:51.675Z,3.65
2023-02-19T14:19:59.000Z,2.47
2023-02-19T14:22:52.192Z,4.00
2023-02-19T14:25:31.228Z,2.78
2023-02-19T14:28:03.977Z,4.43
2023-02-19T14:30:41.320Z,1.77
2023-02-19T14:33:12.242Z,1.70
2023-02-19T14:35:43.688Z,1.92
2023-02-19T14:38:19.314Z,3.50
2023-02-19T14:40:49.106Z,1.67
2023-02-19T14:43:20.369Z,3.13
2023-02-19T14:45:53.859Z,1.65
2023-02-19T14:48:26.146Z,4.22
2023-02-19T14:51:02.268Z,4.85
2023-02-19T14:53:34.236Z,4.15
2023-02-19T14:56:04.368Z,2.30
2023-02-19T14:58:36.944Z,1.13
2023-02-19T15:01:10.344Z,6.40
2023-02-19T15:03:42.062Z,2.55
2023-02-19T15:06:20.283Z,2.33
2023-02-19T15:08:51.593Z,3.17
2023-02-19T15:11:23.344Z,1.33
2023-02-19T15:13:54.155Z,1.95
2023-02-19T15:16:26.706Z,4.30
2023-02-19T15:18:56.726Z,1.95
2023-02-19T15:21:28.612Z,0.75
2023-02-19T15:23:59.480Z,2.10
2023-02-19T15:26:35.616Z,3.85
2023-02-19T15:29:06.355Z,0.85
2023-02-19T15:31:36.680Z,1.67
2023-02-19T15:34:05.157Z,3.63
2023-02-19T15:36:36.213Z,4.20
2023-02-19T15:39:04.834Z,1.95
2023-02-19T15:41:35.956Z,4.13
2023-02-19T15:44:20.550Z,3.80
2023-02-19T15:46:51.124Z,5.72
2023-02-19T15:49:23.956Z,2.30
2023-02-19T15:51:58.045Z,6.55
2023-02-19T15:54:32.115Z,4.90
2023-02-19T15:57:05.074Z,2.20
2023-02-19T15:59:40.180Z,4.03
2023-02-19T16:02:14.468Z,4.15
2023-02-19T16:04:45.245Z,1.63
2023-02-19T16:07:25.924Z,4.80
2023-02-19T16:10:14.092Z,3.70
2023-02-19T16:12:42.933Z,2.92
2023-02-19T16:15:15.261Z,4.30
2023-02-19T16:17:46.467Z,1.83
2023-02-19T16:20:22.917Z,4.32
2023-02-19T16:22:53.099Z,3.15
2023-02-19T16:25:35.203Z,3.85
2023-02-19T16:28:12.633Z,2.75
2023-02-19T16:30:41.213Z,2.40
2023-02-19T16:33:36.678Z,2.20
2023-02-19T16:36:19.958Z,1.98
2023-02-19T16:39:33.367Z,1.88
2023-02-19T16:42:19.868Z,3.60
2023-02-19T16:44:49.048Z,2.95
2023-02-19T16:47:35.438Z,3.65
2023-02-19T16:50:12.425Z,3.60
2023-02-19T16:52:52.515Z,1.52
2023-02-19T16:55:20.873Z,2.72
2023-02-19T16:57:49.535Z,5.03
2023-02-19T17:00:19.885Z,7.22
2023-02-19T17:02:50.323Z,1.10
2023-02-19T17:05:23.301Z,1.95
2023-02-19T17:07:51.971Z,6.38
2023-02-19T17:10:23.054Z,4.45
2023-02-19T17:12:51.558Z,2.50
2023-02-19T17:15:20.048Z,5.82
2023-02-19T17:17:49.023Z,1.50
2023-02-19T17:20:26.440Z,3.17
2023-02-19T17:22:54.990Z,3.67
2023-02-19T17:25:23.602Z,4.20
2023-02-19T17:27:52.036Z,4.93
2023-02-19T17:30:25.652Z,2.30
2023-02-19T17:32:54.246Z,45.10
2023-02-19T17:35:25.270Z,53.15
2023-02-19T17:37:53.759Z,29.33
2023-02-19T17:40:32.706Z,7.75
2023-02-19T17:43:01.914Z,5.82
2023-02-19T17:45:30.753Z,3.15
2023-02-19T17:47:59.591Z,8.73
2023-02-19T17:50:32.462Z,15.00
2023-02-19T17:53:01.039Z,11.82
2023-02-19T17:55:30.133Z,8.48
2023-02-19T17:57:58.544Z,5.40
2023-02-19T18:00:28.594Z,6.40
2023-02-19T18:02:57.227Z,6.13
2023-02-19T18:05:26.469Z,9.95
2023-02-19T18:07:56.170Z,13.18
2023-02-19T18:10:25.334Z,16.75
2023-02-19T18:12:53.790Z,16.35
2023-02-19T18:15:24.142Z,16.70
2023-02-19T18:17:52.537Z,15.95
2023-02-19T18:20:23.376Z,10.45
2023-02-19T18:22:52.152Z,12.23
2023-02-19T18:25:22.901Z,14.63
2023-02-19T18:27:51.699Z,13.07
2023-02-19T18:30:23.168Z,11.60
2023-02-19T18:32:52.055Z,11.35
2023-02-19T18:35:21.490Z,11.57
2023-02-19T18:37:52.818Z,11.32
2023-02-19T18:40:25.405Z,15.80
2023-02-19T18:42:54.152Z,12.48
2023-02-19T18:45:23.148Z,14.52
2023-02-19T18:47:52.047Z,12.60
2023-02-19T18:50:21.131Z,16.27
2023-02-19T18:52:49.575Z,15.15
2023-02-19T18:55:18.220Z,12.50
2023-02-19T18:57:49.457Z,12.50
2023-02-19T19:00:20.159Z,10.65
2023-02-19T19:02:50.568Z,10.65
2023-02-19T19:05:23.313Z,10.30
2023-02-19T19:07:52.917Z,9.25
2023-02-19T19:10:21.731Z,9.65
2023-02-19T19:12:51.873Z,19.02
2023-02-19T19:15:20.456Z,12.32
2023-02-19T19:17:49.579Z,10.15
2023-02-19T19:20:19.045Z,10.57
2023-02-19T19:22:47.428Z,13.23
2023-02-19T19:25:15.741Z,13.43
2023-02-19T19:27:44.058Z,12.85
2023-02-19T19:30:14.859Z,14.43
2023-02-19T19:32:43.190Z,17.27
2023-02-19T19:35:11.831Z,16.15
2023-02-19T19:37:40.422Z,16.60
2023-02-19T19:40:10.305Z,14.68
2023-02-19T19:42:38.963Z,16.27
2023-02-19T19:45:08.506Z,19.67
2023-02-19T19:47:38.394Z,17.30
2023-02-19T19:50:07.456Z,14.73
2023-02-19T19:52:35.829Z,21.10
2023-02-19T19:55:05.081Z,19.08
2023-02-19T19:57:33.531Z,16.48
2023-02-19T20:00:02.511Z,19.02
2023-02-19T20:02:31.024Z,17.87
2023-02-19T20:05:01.483Z,18.58
2023-02-19T20:07:30.569Z,17.50
2023-02-19T20:09:59.009Z,19.55
2023-02-19T20:12:27.432Z,18.90
2023-02-19T20:14:55.838Z,20.58
2023-02-19T20:17:27.427Z,17.92
2023-02-19T20:19:55.790Z,21.50
2023-02-19T20:22:25.699Z,22.45
2023-02-19T20:24:55.337Z,26.23
2023-02-19T20:27:24.652Z,23.83
2023-02-19T20:29:53.060Z,23.35
2023-02-19T20:32:21.437Z,22.25
2023-02-19T20:34:50.290Z,19.98
2023-02-19T20:37:18.777Z,24.42
2023-02-19T20:39:48.966Z,19.63
2023-02-19T20:42:17.754Z,21.83
2023-02-19T20:44:46.533Z,20.55
2023-02-19T20:47:15.006Z,22.48
2023-02-19T20:49:46.857Z,18.58
2023-02-19T20:52:17.429Z,18.52
2023-02-19T20:54:45.838Z,20.20
2023-02-19T20:57:15.893Z,21.63
2023-02-19T20:59:44.391Z,23.77
2023-02-19T21:02:18.582Z,22.33
2023-02-19T21:04:48.056Z,22.63
2023-02-19T21:07:17.246Z,22.88
2023-02-19T21:09:45.664Z,21.95
2023-02-19T21:12:15.414Z,22.17
2023-02-19T21:14:43.922Z,24.50
2023-02-19T21:17:12.365Z,23.13
2023-02-19T21:19:40.840Z,21.52
2023-02-19T21:22:09.624Z,22.00
2023-02-19T21:24:38.381Z,22.17
2023-02-19T21:27:07.273Z,20.02
2023-02-19T21:29:37.097Z,17.65
2023-02-19T21:32:06.491Z,22.13
2023-02-19T21:34:35.276Z,22.10
2023-02-19T21:37:03.915Z,21.63
2023-02-19T21:39:33.624Z,24.70
2023-02-19T21:42:03.958Z,21.65
2023-02-19T21:44:32.447Z,18.98
2023-02-19T21:47:03.174Z,20.33
2023-02-19T21:49:31.642Z,24.45
2023-02-19T21:52:00.118Z,25.30
2023-02-19T21:54:29.513Z,20.50
2023-02-19T21:56:57.876Z,25.85
2023-02-19T21:59:26.623Z,23.88
2023-02-19T22:01:57.008Z,22.42
2023-02-19T22:04:27.427Z,27.45
2023-02-19T22:06:57.441Z,24.33
2023-02-19T22:09:26.098Z,23.83
2023-02-19T22:11:54.506Z,24.33
2023-02-19T22:14:23.037Z,24.63
2023-02-19T22:16:51.846Z,24.10
2023-02-19T22:19:20.198Z,27.90
2023-02-19T22:21:50.001Z,24.75
2023-02-19T22:24:20.056Z,24.85
2023-02-19T22:26:50.678Z,22.77
2023-02-19T22:29:19.578Z,24.08
2023-02-19T22:31:48.178Z,26.05
2023-02-19T22:34:18.025Z,23.48
2023-02-19T22:36:46.412Z,26.17
2023-02-19T22:39:20.670Z,27.08
2023-02-19T22:41:49.433Z,28.65
2023-02-19T22:44:18.380Z,28.25
2023-02-19T22:46:51.903Z,31.92
2023-02-19T22:49:20.878Z,33.63
2023-02-19T22:51:52.005Z,27.00
2023-02-19T22:54:26.775Z,31.00
2023-02-19T22:56:55.613Z,27.50
2023-02-19T22:59:24.609Z,32.33
2023-02-19T23:01:53.715Z,32.28
2023-02-19T23:04:23.738Z,27.10
2023-02-19T23:06:53.064Z,31.65
2023-02-19T23:09:25.024Z,32.08
2023-02-19T23:11:53.931Z,32.42
2023-02-19T23:14:24.396Z,30.25
2023-02-19T23:16:52.862Z,31.20
2023-02-19T23:19:21.447Z,38.70
2023-02-19T23:21:50.193Z,38.80
2023-02-19T23:24:18.969Z,37.20
2023-02-19T23:26:51.191Z,37.95
2023-02-19T23:29:21.227Z,33.13
2023-02-19T23:31:49.827Z,35.90
2023-02-19T23:34:19.117Z,32.95
2023-02-19T23:36:50.191Z,35.15
2023-02-19T23:39:21.495Z,41.58
2023-02-19T23:41:53.567Z,43.40
2023-02-19T23:44:23.512Z,36.53
2023-02-19T23:46:52.977Z,40.10
2023-02-19T23:49:21.720Z,33.22
2023-02-19T23:51:50.223Z,44.38
2023-02-19T23:54:18.777Z,40.10
2023-02-19T23:56:47.128Z,44.30
2023-02-19T23:59:16.989Z,42.55
